East Smethport, Pennsylvania
Current Conditions -  °F | °C
As of 1:53 PM on Tuesday 27 Jan 2015 (Local Time) from KBFD Reporting Station
Overcast Overcast  
Wind Chill: -15°   Ceiling: 7500
Heat Index: -8°   Visibility: 10mi
Dew Point: -14°   Wind: 12mph
Humidity: 62%   Direction: 340°NNW
Pressure: 29.82"   Gusts: NA
Location:  41.81°N, 78.42°W
Report Text: KBFD 271853Z AUTO 34010KT 10SM OVC075 M08/M14 A2982 RMK AO2 SLP130 T10781139
Loading
Personal Weather Stations






























Interactive Weather Map New forecast layout! Learn more

10-Day Weather Forecast

Advertisements
Track Severe Weather on mobile